Time;durP1;ratioP1;P1;durP2;ratioP2;P2;SDS_P1;SDS_P2;PMS_P1;PMS_P2;Temp;Humidity;BMP_temperature;BMP_pressure;BME280_temperature;BME280_humidity;BME280_pressure;Samples;Min_cycle;Max_cycle;Signal;HPM_P1;HPM_P2
2022/09/03 00:00:23;;;;;;;5.47;3.80;;;21.10;99.90;;;;;;4952818;28;20220;-71
2022/09/03 00:03:03;;;;;;;5.80;3.88;;;21.10;99.90;;;;;;4952862;28;20172;-71
2022/09/03 00:05:33;;;;;;;4.15;3.33;;;21.10;1.80;;;;;;4953199;28;20176;-71
2022/09/03 00:08:13;;;;;;;5.32;3.70;;;21.10;1.00;;;;;;4953022;28;20176;-71
2022/09/03 00:10:58;;;;;;;7.72;3.60;;;21.10;1.00;;;;;;4951793;28;20183;-71
2022/09/03 00:13:48;;;;;;;6.22;3.70;;;21.00;99.90;;;;;;4954238;28;20219;-71
2022/09/03 00:16:18;;;;;;;3.40;3.15;;;21.00;76.30;;;;;;4971550;28;20294;-71
2022/09/03 00:18:56;;;;;;;4.68;3.20;;;20.90;1.00;;;;;;4972288;28;20215;-71
2022/09/03 00:21:40;;;;;;;3.83;2.88;;;20.90;1.00;;;;;;4971971;28;20187;-70
2022/09/03 00:24:10;;;;;;;3.63;3.22;;;20.90;1.00;;;;;;4972123;28;20274;-72
2022/09/03 00:26:38;;;;;;;4.70;3.53;;;20.90;1.00;;;;;;4972069;28;20669;-71
2022/09/03 00:29:16;;;;;;;2.72;2.53;;;20.90;1.00;;;;;;4971691;28;20186;-71
2022/09/03 00:31:50;;;;;;;3.22;2.92;;;20.90;1.00;;;;;;4971977;28;20184;-71
2022/09/03 00:34:25;;;;;;;3.50;3.20;;;20.90;1.00;;;;;;4972178;28;20168;-71
2022/09/03 00:36:52;;;;;;;3.85;2.90;;;20.90;1.00;;;;;;4971907;28;20203;-71
2022/09/03 00:39:20;;;;;;;2.72;2.40;;;21.00;1.00;;;;;;4971784;28;20188;-71
2022/09/03 00:42:16;;;;;;;3.95;2.80;;;20.90;1.00;;;;;;4971825;28;20183;-71
2022/09/03 00:45:01;;;;;;;4.47;2.83;;;21.00;1.00;;;;;;4971527;28;20179;-71
2022/09/03 00:47:49;;;;;;;5.15;3.40;;;21.00;1.00;;;;;;4971843;28;20172;-71
2022/09/03 00:50:51;;;;;;;5.50;3.05;;;21.10;1.00;;;;;;4971674;28;20172;-71
2022/09/03 00:53:33;;;;;;;6.55;3.20;;;21.10;1.00;;;;;;4971888;28;20175;-71
2022/09/03 00:56:23;;;;;;;5.03;2.70;;;21.10;99.90;;;;;;4971493;28;20245;-71
2022/09/03 00:58:58;;;;;;;4.78;3.00;;;21.10;99.90;;;;;;4971026;28;20211;-71
2022/09/03 01:01:40;;;;;;;3.63;3.00;;;21.10;99.90;;;;;;4971645;28;20175;-71
2022/09/03 01:04:24;;;;;;;2.90;2.63;;;21.00;99.90;;;;;;4971583;28;20171;-71
2022/09/03 01:07:38;;;;;;;4.57;2.70;;;21.00;99.90;;;;;;4971553;28;20168;-70
2022/09/03 01:10:26;;;;;;;4.30;2.80;;;21.00;99.90;;;;;;4935891;28;20221;-71
2022/09/03 01:13:05;;;;;;;4.85;3.05;;;21.00;1.00;;;;;;4971459;28;20195;-71
2022/09/03 01:15:56;;;;;;;4.18;3.10;;;20.90;1.00;;;;;;4973514;28;20273;-71
2022/09/03 01:18:33;;;;;;;3.30;3.10;;;20.90;1.00;;;;;;4974759;28;20235;-71
2022/09/03 01:21:34;;;;;;;5.45;3.00;;;20.90;1.00;;;;;;4974856;28;20673;-71
2022/09/03 01:24:16;;;;;;;4.20;3.20;;;21.00;1.00;;;;;;4975021;28;20176;-71
2022/09/03 01:27:04;;;;;;;4.72;3.00;;;20.90;1.00;;;;;;4974865;28;20179;-71
2022/09/03 01:29:37;;;;;;;3.35;3.00;;;20.90;1.00;;;;;;4974559;28;20206;-71
2022/09/03 01:32:30;;;;;;;5.03;3.17;;;21.00;1.00;;;;;;4974669;28;20281;-71
2022/09/03 01:35:10;;;;;;;5.72;3.20;;;21.10;1.00;;;;;;4957462;28;20275;-72
2022/09/03 01:37:39;;;;;;;3.70;3.40;;;21.20;1.00;;;;;;4974479;28;20206;-72
2022/09/03 01:40:20;;;;;;;5.47;3.78;;;21.10;1.00;;;;;;4974571;28;20172;-71
2022/09/03 01:43:08;;;;;;;4.13;3.30;;;21.10;43.70;;;;;;4974421;28;20183;-71
2022/09/03 01:45:43;;;;;;;3.80;3.33;;;21.00;1.00;;;;;;4974574;28;20175;-71
2022/09/03 01:48:49;;;;;;;3.60;3.40;;;21.00;99.90;;;;;;4973103;28;20264;-71
2022/09/03 01:51:26;;;;;;;4.03;3.72;;;21.10;99.90;;;;;;4974309;28;20262;-72
2022/09/03 01:54:16;;;;;;;4.28;3.88;;;21.00;1.00;;;;;;4973079;28;20179;-71
2022/09/03 01:57:06;;;;;;;3.90;3.60;;;20.90;1.00;;;;;;4973856;28;20168;-71
2022/09/03 01:59:45;;;;;;;5.07;3.97;;;20.80;1.00;;;;;;4974162;28;20233;-71
2022/09/03 02:02:20;;;;;;;4.53;4.03;;;20.80;1.00;;;;;;4974196;28;20258;-71
2022/09/03 02:05:18;;;;;;;5.03;4.25;;;20.80;99.90;;;;;;4974254;28;20178;-71
2022/09/03 02:08:05;;;;;;;5.63;4.40;;;20.80;1.00;;;;;;4952052;28;20192;-71
2022/09/03 02:10:53;;;;;;;4.50;4.10;;;20.80;1.00;;;;;;4973177;28;20191;-71
2022/09/03 02:13:34;;;;;;;4.78;4.20;;;20.80;77.10;;;;;;4973680;28;20198;-71
2022/09/03 02:16:08;;;;;;;7.78;4.40;;;20.80;99.90;;;;;;4973863;28;20179;-71
2022/09/03 02:18:43;;;;;;;4.75;4.35;;;20.90;1.00;;;;;;4974043;28;20212;-71
2022/09/03 02:21:09;;;;;;;5.45;5.00;;;21.00;99.90;;;;;;4973920;28;20176;-71
2022/09/03 02:23:38;;;;;;;4.90;4.53;;;21.00;13.90;;;;;;4973816;28;20208;-71
2022/09/03 02:26:07;;;;;;;7.20;4.90;;;21.10;99.90;;;;;;4973374;28;20179;-72
2022/09/03 02:28:33;;;;;;;6.82;4.97;;;21.10;99.90;;;;;;4973599;28;20652;-71
2022/09/03 02:30:59;;;;;;;5.82;4.90;;;21.00;64.70;;;;;;4973564;28;20576;-71
2022/09/03 02:33:25;;;;;;;6.72;5.50;;;20.90;67.90;;;;;;4973656;28;20168;-71
2022/09/03 02:35:51;;;;;;;7.57;5.68;;;20.90;99.90;;;;;;4973629;28;20203;-71
2022/09/03 02:38:19;;;;;;;5.50;5.00;;;20.80;1.00;;;;;;4973436;28;20211;-71
2022/09/03 02:40:46;;;;;;;6.00;5.20;;;20.80;1.00;;;;;;4973161;28;20201;-71
2022/09/03 02:43:23;;;;;;;5.78;5.05;;;20.80;99.90;;;;;;4973460;28;20176;-71
2022/09/03 02:45:52;;;;;;;6.63;5.68;;;20.90;99.90;;;;;;4972267;28;20176;-70
2022/09/03 02:48:23;;;;;;;8.32;6.25;;;20.90;99.90;;;;;;4973593;28;20176;-71
2022/09/03 02:50:48;;;;;;;8.65;6.45;;;20.90;1.00;;;;;;4973273;28;20175;-70
2022/09/03 02:53:14;;;;;;;7.85;7.15;;;20.90;99.90;;;;;;4973448;28;20176;-70
2022/09/03 02:55:40;;;;;;;8.40;6.60;;;21.00;1.00;;;;;;4972811;28;20662;-72
2022/09/03 02:58:07;;;;;;;9.50;8.20;;;21.00;99.90;;;;;;4973493;28;20226;-71
2022/09/03 03:00:34;;;;;;;9.70;7.75;;;21.00;1.00;;;;;;4973320;28;20230;-71
2022/09/03 03:03:01;;;;;;;9.75;8.77;;;21.00;39.20;;;;;;4973222;28;20201;-71
2022/09/03 03:05:41;;;;;;;9.23;8.15;;;20.90;99.90;;;;;;4973338;28;20559;-71
2022/09/03 03:08:07;;;;;;;8.43;7.70;;;20.90;99.90;;;;;;4972997;28;20647;-70
2022/09/03 03:10:34;;;;;;;8.45;7.70;;;20.90;99.90;;;;;;4972776;28;20175;-71
2022/09/03 03:13:00;;;;;;;7.85;7.10;;;20.80;99.90;;;;;;4972823;28;20192;-70
2022/09/03 03:15:26;;;;;;;7.22;6.53;;;20.80;99.90;;;;;;4972910;28;20236;-70
2022/09/03 03:17:55;;;;;;;7.63;6.90;;;20.90;99.90;;;;;;4972751;28;20742;-70
2022/09/03 03:20:21;;;;;;;7.85;7.05;;;20.80;99.90;;;;;;4972653;28;20178;-71
2022/09/03 03:22:47;;;;;;;7.20;6.60;;;20.70;99.90;;;;;;4972443;28;20267;-71
2022/09/03 03:25:12;;;;;;;9.27;6.30;;;20.80;90.80;;;;;;4972746;28;20268;-70
2022/09/03 03:27:39;;;;;;;7.65;6.35;;;20.80;44.40;;;;;;4971736;28;20184;-71
2022/09/03 03:30:08;;;;;;;6.82;6.25;;;20.80;1.00;;;;;;4972874;28;20176;-71
2022/09/03 03:32:37;;;;;;;6.72;6.13;;;20.80;1.00;;;;;;4972706;28;20165;-71
2022/09/03 03:35:04;;;;;;;6.35;5.70;;;20.90;1.00;;;;;;4972858;28;20172;-71
2022/09/03 03:37:30;;;;;;;6.45;5.35;;;20.90;1.00;;;;;;4971283;28;20210;-71
2022/09/03 03:39:56;;;;;;;6.88;6.00;;;21.00;1.00;;;;;;4972754;28;20325;-71
2022/09/03 03:42:21;;;;;;;6.47;5.97;;;21.10;99.90;;;;;;4972507;28;20687;-71
2022/09/03 03:44:47;;;;;;;6.20;5.60;;;21.10;99.90;;;;;;4972399;28;20173;-72
2022/09/03 03:47:15;;;;;;;6.47;5.55;;;21.20;99.90;;;;;;4972679;28;20620;-71
2022/09/03 03:49:41;;;;;;;6.72;6.03;;;21.30;1.00;;;;;;4972161;28;20257;-71
2022/09/03 03:52:07;;;;;;;5.97;5.53;;;21.30;99.90;;;;;;4972145;28;20172;-71
2022/09/03 03:54:33;;;;;;;6.47;5.75;;;21.20;1.00;;;;;;4972319;28;20225;-71
2022/09/03 03:56:58;;;;;;;6.93;6.07;;;21.30;99.90;;;;;;4972260;28;20168;-71
2022/09/03 03:59:24;;;;;;;6.93;6.28;;;21.30;99.90;;;;;;4972078;28;20180;-71
2022/09/03 04:01:50;;;;;;;5.30;4.88;;;21.30;1.00;;;;;;4970946;28;20230;-71
2022/09/03 04:04:16;;;;;;;6.20;4.18;;;21.20;99.90;;;;;;4972212;28;20578;-70
2022/09/03 04:06:42;;;;;;;4.47;4.07;;;20.90;1.00;;;;;;4971556;28;20176;-70
2022/09/03 04:09:07;;;;;;;6.35;4.30;;;20.60;1.00;;;;;;4972531;28;20176;-70
2022/09/03 04:11:33;;;;;;;4.15;3.85;;;20.20;1.00;;;;;;4971004;28;20213;-70
2022/09/03 04:13:58;;;;;;;4.03;3.83;;;19.90;1.00;;;;;;4971745;28;20230;-71
2022/09/03 04:16:26;;;;;;;4.43;4.13;;;19.60;1.00;;;;;;4971870;28;20513;-71
2022/09/03 04:18:53;;;;;;;4.07;3.80;;;19.40;1.00;;;;;;4971684;28;20226;-71
2022/09/03 04:21:21;;;;;;;6.80;3.97;;;19.20;1.00;;;;;;4971512;28;20180;-71
2022/09/03 04:23:48;;;;;;;4.73;2.97;;;19.10;3.70;;;;;;4971921;28;20275;-71
2022/09/03 04:26:15;;;;;;;4.40;4.10;;;19.00;1.00;;;;;;4971991;28;20172;-71
2022/09/03 04:28:41;;;;;;;4.17;3.80;;;19.00;10.70;;;;;;4971841;28;20168;-71
2022/09/03 04:31:09;;;;;;;4.00;3.70;;;18.90;16.80;;;;;;4971493;28;20172;-71
2022/09/03 04:33:39;;;;;;;4.00;3.70;;;18.70;3.90;;;;;;4971725;28;20207;-71
2022/09/03 04:36:07;;;;;;;4.73;4.33;;;18.70;5.50;;;;;;4971269;28;20184;-71
2022/09/03 04:38:35;;;;;;;4.10;3.90;;;18.70;20.10;;;;;;4970568;28;20219;-71
2022/09/03 04:41:01;;;;;;;4.90;4.50;;;18.70;13.40;;;;;;4971303;28;20225;-71
2022/09/03 04:43:27;;;;;;;4.10;3.80;;;18.70;19.50;;;;;;4971295;28;20176;-71
2022/09/03 04:45:58;;;;;;;5.93;4.67;;;18.70;24.30;;;;;;4971488;28;20176;-71
2022/09/03 04:48:24;;;;;;;4.67;4.27;;;18.70;25.20;;;;;;4970270;28;20210;-70
2022/09/03 04:50:50;;;;;;;5.17;4.83;;;18.70;23.30;;;;;;4970979;28;20175;-71
2022/09/03 04:53:15;;;;;;;5.40;4.90;;;18.80;32.70;;;;;;4971266;28;20262;-71
2022/09/03 04:55:41;;;;;;;5.43;4.93;;;18.80;36.70;;;;;;4971331;28;20180;-72
2022/09/03 04:58:07;;;;;;;5.00;4.70;;;18.80;30.00;;;;;;4971322;28;20721;-72
2022/09/03 05:00:32;;;;;;;5.60;5.10;;;18.70;26.00;;;;;;4971270;28;20191;-71
2022/09/03 05:03:03;;;;;;;6.17;5.40;;;18.80;24.50;;;;;;4969902;28;20184;-72
2022/09/03 05:05:33;;;;;;;5.37;4.93;;;18.80;36.90;;;;;;4971252;28;20179;-71
2022/09/03 05:08:02;;;;;;;5.07;4.67;;;18.90;38.30;;;;;;4971047;28;20259;-71
2022/09/03 05:10:29;;;;;;;4.77;4.40;;;18.90;24.60;;;;;;4969653;28;20201;-71
2022/09/03 05:13:04;;;;;;;6.13;5.53;;;19.00;14.40;;;;;;4970800;28;20196;-71
2022/09/03 05:15:31;;;;;;;5.37;4.97;;;19.00;37.10;;;;;;4971035;28;20219;-71
2022/09/03 05:17:58;;;;;;;4.67;4.37;;;19.10;25.00;;;;;;4971169;28;20203;-71
2022/09/03 05:20:24;;;;;;;5.82;5.43;;;19.10;18.50;;;;;;4970732;28;20297;-71
2022/09/03 05:22:51;;;;;;;7.18;6.47;;;19.10;25.70;;;;;;4970858;28;20186;-72
2022/09/03 05:25:16;;;;;;;6.47;5.97;;;19.20;41.80;;;;;;4970950;28;20279;-71
2022/09/03 05:27:42;;;;;;;6.03;5.53;;;19.30;45.40;;;;;;4971078;28;20218;-70
2022/09/03 05:30:08;;;;;;;6.85;5.80;;;19.30;45.80;;;;;;4971466;28;20176;-70
2022/09/03 05:32:34;;;;;;;7.00;6.40;;;19.20;48.70;;;;;;4970987;28;20176;-70
2022/09/03 05:35:00;;;;;;;9.40;7.30;;;19.20;72.20;;;;;;4969036;28;20178;-72
2022/09/03 05:37:26;;;;;;;7.25;6.65;;;19.20;90.90;;;;;;4970942;28;20655;-70
2022/09/03 05:39:52;;;;;;;7.63;7.00;;;19.10;96.30;;;;;;4970867;28;20233;-70
2022/09/03 05:42:18;;;;;;;6.53;6.13;;;19.00;98.70;;;;;;4970692;28;20170;-71
2022/09/03 05:44:43;;;;;;;6.93;6.23;;;19.00;96.60;;;;;;4970717;28;20176;-71
2022/09/03 05:47:09;;;;;;;7.47;6.20;;;19.00;77.10;;;;;;4970832;28;20172;-70
2022/09/03 05:49:35;;;;;;;5.33;4.93;;;19.00;71.10;;;;;;4970186;28;20636;-70
2022/09/03 05:52:02;;;;;;;5.23;4.83;;;19.10;56.10;;;;;;4970799;28;20675;-72
2022/09/03 05:54:27;;;;;;;6.47;5.57;;;19.30;46.40;;;;;;4970377;28;20164;-71
2022/09/03 05:56:53;;;;;;;5.97;5.35;;;19.40;52.60;;;;;;4970329;28;20642;-72
2022/09/03 05:59:19;;;;;;;5.93;5.43;;;19.60;40.00;;;;;;4970551;28;20204;-71
2022/09/03 06:01:45;;;;;;;6.45;4.90;;;19.70;20.10;;;;;;4974094;28;20659;-70
2022/09/03 06:04:13;;;;;;;6.10;5.43;;;19.80;9.50;;;;;;4973765;28;20584;-71
2022/09/03 06:06:41;;;;;;;4.78;4.47;;;19.90;5.00;;;;;;4973929;28;20639;-71
2022/09/03 06:09:09;;;;;;;5.28;4.88;;;20.10;1.00;;;;;;4973494;28;20631;-71
2022/09/03 06:11:36;;;;;;;5.60;5.10;;;20.20;1.00;;;;;;4973897;28;20178;-71
2022/09/03 06:14:06;;;;;;;4.88;4.57;;;20.30;3.60;;;;;;4973403;28;20228;-71
2022/09/03 06:16:34;;;;;;;5.40;4.90;;;20.50;1.00;;;;;;4973640;28;20166;-70
2022/09/03 06:18:59;;;;;;;4.82;4.22;;;20.60;1.00;;;;;;4973339;28;20223;-71
2022/09/03 06:21:25;;;;;;;4.93;4.32;;;20.60;1.00;;;;;;4973480;28;20172;-71
2022/09/03 06:23:55;;;;;;;4.45;4.07;;;20.60;1.00;;;;;;4973335;28;20562;-71
2022/09/03 06:26:21;;;;;;;4.05;3.70;;;20.60;1.00;;;;;;4973280;28;20247;-71
2022/09/03 06:28:48;;;;;;;4.30;3.90;;;20.50;1.00;;;;;;4972013;28;20226;-71
2022/09/03 06:31:16;;;;;;;4.15;3.75;;;20.50;1.00;;;;;;4973252;28;20168;-73
2022/09/03 06:33:42;;;;;;;6.40;3.72;;;20.50;1.00;;;;;;4973496;28;20168;-70
2022/09/03 06:36:12;;;;;;;4.35;3.95;;;20.40;1.00;;;;;;4972122;28;20176;-72
2022/09/03 06:38:39;;;;;;;4.00;3.70;;;20.40;1.00;;;;;;4972826;28;20289;-71
2022/09/03 06:41:19;;;;;;;4.82;3.88;;;20.50;1.00;;;;;;4973247;28;20211;-71
2022/09/03 06:43:46;;;;;;;4.68;4.28;;;20.40;1.00;;;;;;4973644;28;20245;-71
2022/09/03 06:46:17;;;;;;;5.70;4.20;;;20.40;1.00;;;;;;4973143;28;20261;-71
2022/09/03 06:48:42;;;;;;;8.77;4.63;;;20.60;1.00;;;;;;4972479;28;20180;-71
2022/09/03 06:51:18;;;;;;;4.50;4.15;;;20.60;1.00;;;;;;4973274;28;20168;-72
2022/09/03 06:53:46;;;;;;;5.60;4.97;;;20.60;1.00;;;;;;4973231;28;20182;-72
2022/09/03 06:56:15;;;;;;;5.25;4.95;;;20.70;1.00;;;;;;4973348;28;20246;-72
2022/09/03 06:58:50;;;;;;;4.70;4.18;;;20.70;1.00;;;;;;4972814;28;20250;-72
2022/09/03 07:01:22;;;;;;;4.32;3.95;;;20.70;1.00;;;;;;4972223;28;20186;-71
2022/09/03 07:03:54;;;;;;;4.10;3.80;;;20.60;1.00;;;;;;4972863;28;20251;-70
2022/09/03 07:06:21;;;;;;;4.88;3.42;;;20.60;1.00;;;;;;4973158;28;20173;-72
2022/09/03 07:08:46;;;;;;;7.00;4.32;;;20.70;1.00;;;;;;4972985;28;20229;-71
2022/09/03 07:11:18;;;;;;;8.57;4.10;;;20.90;99.90;;;;;;4971509;28;20636;-71
2022/09/03 07:13:47;;;;;;;4.32;3.88;;;21.10;99.90;;;;;;4972490;28;20231;-72
2022/09/03 07:16:20;;;;;;;3.70;3.50;;;21.20;1.00;;;;;;4972300;28;20180;-72
2022/09/03 07:18:47;;;;;;;4.72;3.80;;;21.20;1.00;;;;;;4972345;28;20218;-71
2022/09/03 07:21:17;;;;;;;5.10;4.10;;;21.10;1.00;;;;;;4972718;28;20183;-72
2022/09/03 07:23:44;;;;;;;5.40;3.45;;;20.90;99.90;;;;;;4972908;28;20191;-72
2022/09/03 07:26:12;;;;;;;4.03;3.72;;;21.00;99.90;;;;;;4972246;28;20191;-71
2022/09/03 07:28:40;;;;;;;3.70;3.50;;;20.90;99.90;;;;;;4972584;28;20704;-72
2022/09/03 07:31:10;;;;;;;3.80;3.55;;;21.10;99.90;;;;;;4972312;28;20226;-72
2022/09/03 07:33:37;;;;;;;4.38;4.00;;;21.20;1.00;;;;;;4972605;28;20168;-71
2022/09/03 07:36:05;;;;;;;4.20;3.83;;;21.30;1.00;;;;;;4970992;28;20274;-72
2022/09/03 07:38:34;;;;;;;4.32;3.92;;;21.40;98.30;;;;;;4972382;28;20212;-72
2022/09/03 07:41:03;;;;;;;4.40;3.58;;;21.50;1.00;;;;;;4972182;28;20700;-72
2022/09/03 07:43:33;;;;;;;5.93;3.80;;;21.70;99.90;;;;;;4972508;28;20635;-72
2022/09/03 07:46:00;;;;;;;5.20;4.10;;;21.70;1.00;;;;;;4970359;28;20176;-71
2022/09/03 07:48:26;;;;;;;11.38;3.97;;;21.80;1.00;;;;;;4972250;28;20177;-71
2022/09/03 07:50:52;;;;;;;7.63;5.20;;;21.80;1.00;;;;;;4971783;28;20168;-72
2022/09/03 07:53:21;;;;;;;5.80;5.22;;;21.80;99.90;;;;;;4972124;28;20215;-71
2022/09/03 07:55:47;;;;;;;7.90;5.00;;;21.90;1.00;;;;;;4971641;28;20190;-72
2022/09/03 07:58:13;;;;;;;6.00;4.90;;;21.90;1.00;;;;;;4971567;28;20663;-72
2022/09/03 08:00:39;;;;;;;5.72;4.32;;;22.00;1.00;;;;;;4971692;28;20201;-71
2022/09/03 08:03:07;;;;;;;6.55;4.30;;;22.20;1.00;;;;;;4972411;28;20264;-72
2022/09/03 08:05:35;;;;;;;6.07;3.63;;;22.00;1.00;;;;;;4970940;28;20180;-72
2022/09/03 08:08:04;;;;;;;3.85;3.53;;;22.10;99.90;;;;;;4971786;28;20225;-71
2022/09/03 08:10:33;;;;;;;3.67;3.38;;;22.30;99.90;;;;;;4971890;28;20160;-71
2022/09/03 08:12:58;;;;;;;4.05;3.65;;;22.30;1.00;;;;;;4971595;28;20202;-72
2022/09/03 08:15:25;;;;;;;5.70;3.65;;;22.20;1.00;;;;;;4971732;28;20220;-71
2022/09/03 08:17:51;;;;;;;5.20;3.53;;;22.50;99.90;;;;;;4971235;28;20678;-72
2022/09/03 08:20:18;;;;;;;5.80;3.75;;;22.90;99.90;;;;;;4971542;28;20230;-71
2022/09/03 08:22:45;;;;;;;3.95;3.65;;;23.10;1.00;;;;;;4971562;28;20776;-71
2022/09/03 08:25:11;;;;;;;3.75;3.30;;;23.40;1.00;;;;;;4971337;28;20168;-72
2022/09/03 08:27:36;;;;;;;4.05;3.75;;;23.60;1.00;;;;;;4971603;28;20525;-72
2022/09/03 08:30:03;;;;;;;5.15;4.07;;;23.60;1.00;;;;;;4971805;28;20188;-72
2022/09/03 08:32:29;;;;;;;5.15;4.28;;;23.70;1.00;;;;;;4971328;28;20289;-72
2022/09/03 08:34:54;;;;;;;6.32;4.28;;;23.60;1.00;;;;;;4971528;28;20663;-73
2022/09/03 08:37:21;;;;;;;5.15;4.28;;;23.90;1.00;;;;;;4971358;28;20176;-72
2022/09/03 08:39:47;;;;;;;4.78;4.38;;;24.40;99.90;;;;;;4971765;28;20198;-72
2022/09/03 08:42:37;;;;;;;4.18;3.80;;;24.50;99.90;;;;;;4970921;28;20203;-72
2022/09/03 08:45:07;;;;;;;4.95;4.43;;;24.50;99.90;;;;;;4971412;28;20222;-72
2022/09/03 08:48:32;;;;;;;4.53;4.18;;;24.80;99.90;;;;;;4971147;28;20176;-73
2022/09/03 08:51:01;;;;;;;4.55;4.13;;;24.70;99.90;;;;;;4990907;28;20183;-73
2022/09/03 08:53:37;;;;;;;4.80;3.85;;;24.80;99.90;;;;;;4974820;28;20187;-73
2022/09/03 08:56:09;;;;;;;4.93;4.10;;;25.50;89.70;;;;;;4991065;28;20178;-73
2022/09/03 08:58:42;;;;;;;6.22;4.75;;;25.50;1.00;;;;;;4990456;28;20226;-75
2022/09/03 09:01:10;;;;;;;5.07;3.95;;;25.50;1.00;;;;;;4990698;28;20187;-74
2022/09/03 09:03:42;;;;;;;4.95;4.63;;;25.60;1.00;;;;;;4990902;28;20171;-73
2022/09/03 09:06:32;;;;;;;5.75;4.20;;;25.70;1.00;;;;;;4990586;28;20164;-73
2022/09/03 09:09:19;;;;;;;4.60;4.15;;;26.00;1.00;;;;;;4974666;28;20259;-74
2022/09/03 09:11:49;;;;;;;4.78;4.47;;;26.20;1.00;;;;;;4990907;28;20175;-74
2022/09/03 09:14:44;;;;;;;6.00;4.30;;;26.00;1.00;;;;;;4990889;28;20350;-74
2022/09/03 09:17:40;;;;;;;4.93;4.45;;;26.20;1.00;;;;;;4991007;28;20206;-73
2022/09/03 09:20:25;;;;;;;5.78;4.38;;;26.30;1.00;;;;;;4991337;28;20330;-74
2022/09/03 09:23:02;;;;;;;4.93;4.50;;;26.60;1.00;;;;;;4990384;28;20168;-73
2022/09/03 09:25:30;;;;;;;4.88;4.47;;;26.90;1.00;;;;;;4989108;28;20179;-73
2022/09/03 09:27:59;;;;;;;6.35;4.40;;;27.30;1.00;;;;;;4951550;28;20173;-74
2022/09/03 09:30:25;;;;;;;6.68;4.72;;;27.30;1.00;;;;;;4949862;28;20219;-74
2022/09/03 09:32:51;;;;;;;8.73;4.90;;;27.10;1.00;;;;;;4951664;28;20173;-74
2022/09/03 09:35:17;;;;;;;5.72;4.57;;;27.00;1.00;;;;;;4951580;29;20181;-75
2022/09/03 09:37:51;;;;;;;5.10;4.80;;;26.60;1.00;;;;;;4955012;28;20208;-73
2022/09/03 09:40:31;;;;;;;5.05;4.65;;;26.70;1.00;;;;;;4954161;28;20631;-74
2022/09/03 09:43:19;;;;;;;5.60;4.70;;;26.70;1.00;;;;;;4954919;28;20212;-75
2022/09/03 09:45:47;;;;;;;6.03;4.80;;;26.80;1.00;;;;;;4954573;28;20177;-73
2022/09/03 09:48:19;;;;;;;5.53;5.00;;;26.90;1.00;;;;;;4954113;28;20251;-72
2022/09/03 09:50:44;;;;;;;5.20;4.80;;;27.00;1.00;;;;;;4954778;28;20215;-73
2022/09/03 09:53:13;;;;;;;5.18;4.68;;;26.60;1.00;;;;;;4954644;28;20171;-73
2022/09/03 09:56:01;;;;;;;5.07;4.57;;;26.60;1.00;;;;;;4953732;28;20259;-72
2022/09/03 09:58:29;;;;;;;5.18;4.78;;;26.50;1.00;;;;;;4954420;28;20220;-74
2022/09/03 10:01:21;;;;;;;5.57;4.72;;;26.30;1.00;;;;;;4954153;28;20168;-74
2022/09/03 10:03:55;;;;;;;5.32;4.93;;;26.40;1.00;;;;;;4954288;28;20173;-74
2022/09/03 10:09:16;;;;;;;5.43;5.03;;;26.40;1.00;;;;;;4953891;28;20643;-73
2022/09/03 10:12:04;;;;;;;5.90;5.32;;;26.40;1.00;;;;;;4953858;28;20200;-74
2022/09/03 10:14:36;;;;;;;7.35;5.00;;;26.40;1.00;;;;;;4960276;28;20254;-73
2022/09/03 10:17:15;;;;;;;7.15;5.18;;;26.40;17.30;;;;;;4973303;28;20619;-74
2022/09/03 10:20:32;;;;;;;6.43;5.93;;;25.90;99.90;;;;;;4971937;28;20191;-72
2022/09/03 10:23:04;;;;;;;7.20;5.70;;;25.20;1.00;;;;;;4973836;28;20208;-74
2022/09/03 10:25:49;;;;;;;7.65;6.30;;;25.00;99.90;;;;;;4972514;28;20681;-73
2022/09/03 10:28:15;;;;;;;7.20;6.50;;;24.80;1.00;;;;;;4973062;28;20183;-74
2022/09/03 10:30:54;;;;;;;6.95;6.25;;;25.00;1.00;;;;;;4972762;28;20173;-73
2022/09/03 10:33:33;;;;;;;6.60;5.75;;;25.10;99.90;;;;;;4972106;28;20180;-74
2022/09/03 10:36:18;;;;;;;6.63;5.85;;;25.20;1.00;;;;;;4972537;28;20206;-73
2022/09/03 10:38:52;;;;;;;6.18;5.68;;;25.60;99.90;;;;;;4972630;28;20238;-72
2022/09/03 10:42:09;;;;;;;6.30;5.70;;;25.70;99.90;;;;;;4973203;28;20171;-74
2022/09/03 10:45:00;;;;;;;5.93;5.43;;;26.10;1.00;;;;;;4950238;28;20283;-72
2022/09/03 10:47:54;;;;;;;5.93;5.53;;;26.50;99.90;;;;;;4966665;28;20192;-73
2022/09/03 10:50:26;;;;;;;7.45;5.65;;;26.80;99.90;;;;;;4972272;28;20171;-74
2022/09/03 10:53:19;;;;;;;7.03;5.97;;;26.60;73.70;;;;;;4972986;28;20236;-73
2022/09/03 10:55:45;;;;;;;6.78;6.13;;;26.50;99.90;;;;;;4971934;28;20219;-73
2022/09/03 10:58:26;;;;;;;6.65;5.95;;;26.60;96.70;;;;;;4971035;28;20700;-74
2022/09/03 11:00:57;;;;;;;8.90;6.18;;;26.90;1.00;;;;;;4973049;28;20200;-73
2022/09/03 11:04:09;;;;;;;8.50;6.05;;;26.70;1.00;;;;;;4972156;28;20259;-73
2022/09/03 11:06:46;;;;;;;9.30;6.25;;;26.80;99.90;;;;;;4931864;28;20177;-73
2022/09/03 11:09:39;;;;;;;6.55;5.95;;;27.50;1.00;;;;;;4966889;28;20241;-73
2022/09/03 11:12:11;;;;;;;8.68;6.45;;;28.20;1.00;;;;;;4972124;28;20168;-73
2022/09/03 11:15:17;;;;;;;9.05;5.88;;;28.70;1.00;;;;;;4972127;28;20222;-73
2022/09/03 11:17:49;;;;;;;6.35;5.75;;;29.20;1.00;;;;;;4970031;28;20288;-73
2022/09/03 11:20:23;;;;;;;8.05;5.90;;;29.50;1.00;;;;;;4972169;28;20176;-73
2022/09/03 11:22:56;;;;;;;7.22;6.70;;;29.50;99.90;;;;;;4971317;28;20615;-73
2022/09/03 11:25:27;;;;;;;7.88;5.85;;;29.30;99.90;;;;;;4972130;28;20188;-73
2022/09/03 11:28:23;;;;;;;6.75;6.13;;;29.20;99.90;;;;;;4972003;28;20190;-73
2022/09/03 11:31:12;;;;;;;5.70;5.30;;;29.30;99.90;;;;;;4972517;28;20234;-74
2022/09/03 11:33:43;;;;;;;6.07;5.47;;;30.70;99.90;;;;;;4972539;28;20199;-75
2022/09/03 11:36:10;;;;;;;5.93;5.40;;;32.10;99.90;;;;;;4970387;28;20673;-74
2022/09/03 11:38:38;;;;;;;4.60;4.30;;;32.20;99.90;;;;;;4972140;28;20277;-75
2022/09/03 11:41:14;;;;;;;5.05;4.63;;;32.70;99.90;;;;;;4972441;28;20191;-75
2022/09/03 11:43:41;;;;;;;5.63;5.13;;;32.80;99.90;;;;;;4971993;28;20176;-75
2022/09/03 11:46:22;;;;;;;5.47;5.03;;;32.20;99.90;;;;;;4971727;28;20171;-76
2022/09/03 11:48:56;;;;;;;4.90;4.60;;;31.70;99.90;;;;;;4971955;28;20195;-76
2022/09/03 11:51:32;;;;;;;5.93;5.43;;;30.40;99.90;;;;;;4971196;28;20175;-77
2022/09/03 11:53:58;;;;;;;5.80;5.30;;;30.10;99.90;;;;;;4971829;28;20183;-75
2022/09/03 11:56:24;;;;;;;6.32;5.75;;;29.90;99.90;;;;;;4971916;28;20168;-76
2022/09/03 11:59:17;;;;;;;5.82;5.40;;;29.50;99.90;;;;;;4971510;28;20567;-76
2022/09/03 12:01:51;;;;;;;6.90;5.82;;;29.80;99.90;;;;;;4971448;28;20199;-77
2022/09/03 12:04:19;;;;;;;6.45;5.45;;;29.80;99.90;;;;;;4970803;28;20182;-75
2022/09/03 12:07:18;;;;;;;6.47;5.88;;;29.40;99.90;;;;;;4971165;28;20168;-76
2022/09/03 12:09:50;;;;;;;9.10;5.47;;;29.10;99.90;;;;;;4971624;28;20208;-75
2022/09/03 12:12:44;;;;;;;6.43;5.82;;;29.40;99.90;;;;;;4971470;28;20195;-75
2022/09/03 12:15:29;;;;;;;6.10;5.65;;;29.30;99.90;;;;;;4971333;28;20222;-75
2022/09/03 12:18:31;;;;;;;6.20;5.80;;;29.50;99.90;;;;;;4970479;28;20541;-75
2022/09/03 12:20:58;;;;;;;6.05;5.55;;;29.70;99.90;;;;;;4970972;28;20217;-75
2022/09/03 12:23:51;;;;;;;7.10;6.50;;;30.00;99.90;;;;;;4970891;28;20180;-75
2022/09/03 12:26:22;;;;;;;8.23;5.90;;;30.00;99.90;;;;;;4970979;28;20237;-75
2022/09/03 12:28:54;;;;;;;6.30;5.70;;;30.10;99.90;;;;;;4971898;28;20175;-75
2022/09/03 12:31:23;;;;;;;7.50;6.90;;;30.20;99.90;;;;;;4971395;28;20171;-75
2022/09/03 12:34:06;;;;;;;5.68;5.38;;;29.70;99.90;;;;;;4970660;28;20623;-76
2022/09/03 12:36:40;;;;;;;6.07;5.68;;;29.80;99.90;;;;;;4969479;28;20184;-75
2022/09/03 12:39:23;;;;;;;6.53;5.93;;;30.00;99.90;;;;;;4971799;28;20249;-75
2022/09/03 12:42:02;;;;;;;6.07;5.72;;;30.30;99.90;;;;;;4971252;28;20257;-75
2022/09/03 12:44:40;;;;;;;6.10;5.68;;;30.00;99.90;;;;;;4970498;28;20188;-75
2022/09/03 12:47:13;;;;;;;6.00;5.50;;;29.90;99.90;;;;;;4971242;28;20541;-75
2022/09/03 12:49:42;;;;;;;5.03;4.53;;;29.70;99.90;;;;;;4970202;28;20168;-75
2022/09/03 12:52:14;;;;;;;4.75;4.30;;;29.90;99.90;;;;;;4970892;28;20241;-74
2022/09/03 12:54:55;;;;;;;6.70;4.07;;;30.00;99.90;;;;;;4970703;28;20263;-74
2022/09/03 12:57:26;;;;;;;5.50;4.10;;;30.50;99.90;;;;;;4969345;28;20203;-74
2022/09/03 12:59:56;;;;;;;5.07;4.00;;;30.90;99.90;;;;;;4970924;28;20226;-75
2022/09/03 13:02:29;;;;;;;4.43;4.13;;;30.60;99.90;;;;;;4970558;28;20689;-75
2022/09/03 13:04:55;;;;;;;4.53;4.00;;;30.50;99.90;;;;;;4968803;28;20298;-75
2022/09/03 13:07:24;;;;;;;4.55;4.15;;;30.20;99.90;;;;;;4970818;28;20199;-75
2022/09/03 13:09:50;;;;;;;4.50;4.00;;;30.30;99.90;;;;;;4972043;28;20176;-75
2022/09/03 13:12:43;;;;;;;4.55;4.15;;;30.30;99.90;;;;;;4974511;28;20171;-74
2022/09/03 13:15:17;;;;;;;4.45;4.00;;;30.20;99.90;;;;;;4971866;28;20230;-74
2022/09/03 13:17:46;;;;;;;4.55;4.25;;;29.70;99.90;;;;;;4973963;28;20219;-74
2022/09/03 13:20:28;;;;;;;4.22;3.78;;;29.40;99.90;;;;;;4972858;28;20180;-74
2022/09/03 13:23:35;;;;;;;4.53;4.13;;;29.10;99.90;;;;;;4974140;28;20226;-74
2022/09/03 13:26:12;;;;;;;4.53;4.22;;;28.60;99.90;;;;;;4974419;28;20168;-74
2022/09/03 13:28:57;;;;;;;4.75;4.30;;;28.90;99.90;;;;;;4973540;28;20171;-73